Thor Omega — OZ2065 — position and weather

sailwx.info

Track history (hours):
 
Tides and Currents Weather Stations Pressure Air Temp Water Temp Dewpoint Dewpoint Depression Visibility Wind Speed Wind Dir Waves Ship Positions

Thor Omega

Last reported at 2018-Jul-19 00:20 UTC. Time now 2018-Jul-21 19:13 UTC.
Position N 71°04' E 021°54'.

Length 55 m; draft 3.1 m.

Type: Other ship. MMSI: 231085000.

Date/timePositionNaut miles runAvg speedWind from/ knotsBaromVisibWave heightAir tempDewpointWater temp
2018-Jul-19 00:20N 71°04' E 021°54'3 8.0
2018-Jul-19 00:00N 71°04' E 022°02'4 8.1
2018-Jul-18 23:30N 71°04' E 022°15'4 7.7
2018-Jul-18 23:00N 71°04' E 022°27'4 7.6
2018-Jul-18 22:30N 71°04' E 022°38'4 7.2
2018-Jul-18 21:59N 71°04' E 022°49'3 7.0
2018-Jul-18 21:30N 71°04' E 023°00'3 7.1
2018-Jul-18 21:00N 71°04' E 023°11'4 7.6
2018-Jul-18 20:29N 71°03' E 023°22'4 7.6
2018-Jul-18 20:00N 71°00' E 023°30'4 8.3
2018-Jul-18 19:30N 70°56' E 023°32'4 8.3
2018-Jul-18 19:00N 70°52' E 023°32'4 8.5
2018-Jul-18 18:30N 70°48' E 023°34'4 8.6
2018-Jul-18 17:59N 70°44' E 023°34'3 6.5
2018-Jul-18 17:30N 70°40' E 023°34'2 4.0
2018-Jul-18 17:00N 70°40' E 023°40'0 0.0
2018-Jul-18 16:30N 70°40' E 023°40'0 0.0
2018-Jul-18 15:59N 70°40' E 023°40'0 0.0
2018-Jul-18 15:30N 70°40' E 023°40'0 0.0
2018-Jul-18 15:00N 70°40' E 023°40'0 0.0
2018-Jul-18 14:30N 70°40' E 023°40'0 0.0
2018-Jul-18 13:29N 70°40' E 023°40'0 0.0
2018-Jul-18 13:00N 70°40' E 023°40'0 0.1
2018-Jul-18 12:30N 70°40' E 023°40'2 3.8
2018-Jul-18 12:00N 70°39' E 023°35'0 0.7
2018-Jul-18 11:29N 70°39' E 023°34'2 1.8
2018-Jul-18 10:30N 70°38' E 023°39'0 0.3
2018-Jul-18 10:00N 70°38' E 023°40'0 0.0
2018-Jul-18 09:30N 70°38' E 023°40'0 0.0
2018-Jul-18 08:59N 70°38' E 023°40'0 0.0
2018-Jul-18 08:30N 70°38' E 023°40'0 0.0
2018-Jul-18 08:00N 70°38' E 023°40'0 0.0
2018-Jul-18 07:30N 70°38' E 023°40'0 0.0
2018-Jul-18 07:00N 70°38' E 023°40'0 0.0
2018-Jul-18 06:30N 70°38' E 023°40'0 0.0
2018-Jul-18 06:00N 70°38' E 023°40'0 0.9
2018-Jul-18 05:30N 70°38' E 023°38'2 4.6
2018-Jul-18 05:00N 70°40' E 023°33'3 5.5
2018-Jul-18 04:30N 70°42' E 023°31'3 6.0
2018-Jul-18 04:00N 70°45' E 023°34'3 6.6
2018-Jul-18 03:30N 70°48' E 023°35'3 6.0
2018-Jul-18 03:00N 70°51' E 023°34'3 6.1
2018-Jul-18 02:29N 70°55' E 023°33'3 6.4
2018-Jul-18 02:00N 70°58' E 023°31'2 5.0
2018-Jul-18 01:30N 71°00' E 023°29'3 6.1
2018-Jul-18 00:59N 71°00' E 023°19'3 6.2
2018-Jul-18 00:30N 71°01' E 023°10'3 5.9
2018-Jul-17 23:58N 71°01' E 023°01'3 6.0
2018-Jul-17 23:30N 71°02' E 022°52'3 5.5
2018-Jul-17 23:00N 71°02' E 022°44'3 6.0
2018-Jul-17 22:30N 71°02' E 022°35'3 6.6
2018-Jul-17 22:00N 71°02' E 022°24'3 6.2
2018-Jul-17 21:30N 71°02' E 022°15'3 5.9
2018-Jul-17 21:00N 71°02' E 022°06'3 5.7
2018-Jul-17 20:30N 71°01' E 021°57'3 5.7
2018-Jul-17 20:00N 71°00' E 021°49'  
2018-Jul-12 15:22N 71°00' E 021°49'1 3.7
2018-Jul-12 15:00N 71°01' E 021°52'2 3.4
2018-Jul-12 14:30N 71°02' E 021°55'2 3.3
2018-Jul-12 14:00N 71°04' E 021°59'2 3.2
2018-Jul-12 13:30N 71°05' E 022°03'2 3.1
2018-Jul-12 12:59N 71°06' E 022°07'1 3.0
2018-Jul-12 12:30N 71°07' E 022°10'24 2.6
2018-Jul-12 03:25N 71°16' E 023°19'2 4.5
2018-Jul-12 02:59N 71°14' E 023°20'2 4.7
2018-Jul-12 02:30N 71°12' E 023°22'2 5.0
2018-Jul-12 02:00N 71°10' E 023°24'3 5.6
2018-Jul-12 01:30N 71°07' E 023°26'3 5.8
2018-Jul-12 00:59N 71°04' E 023°28'3 5.5
2018-Jul-12 00:30N 71°01' E 023°30'3 5.8
2018-Jul-12 00:00N 70°59' E 023°31'3 6.2
2018-Jul-11 23:30N 70°55' E 023°31'3 6.2
2018-Jul-11 23:00N 70°52' E 023°32'3 6.2
2018-Jul-11 22:30N 70°49' E 023°33'3 6.3
2018-Jul-11 22:00N 70°46' E 023°32'3 6.8
2018-Jul-11 21:30N 70°43' E 023°31'3 5.3
2018-Jul-11 21:00N 70°40' E 023°31'2 4.2
2018-Jul-11 20:29N 70°40' E 023°37'1 2.5
2018-Jul-11 19:58N 70°40' E 023°40'0 0.0
2018-Jul-11 19:28N 70°40' E 023°40'0 0.0
2018-Jul-11 18:58N 70°40' E 023°40'0 0.0
2018-Jul-11 18:28N 70°40' E 023°40'0 0.0
2018-Jul-11 17:58N 70°40' E 023°40'0 0.0
2018-Jul-11 17:28N 70°40' E 023°40'0 0.0
2018-Jul-11 16:58N 70°40' E 023°40'0 0.0
2018-Jul-11 16:28N 70°40' E 023°40'0 0.0
2018-Jul-11 15:58N 70°40' E 023°40'0 0.0
2018-Jul-11 15:28N 70°40' E 023°40'0 0.0
2018-Jul-11 14:58N 70°40' E 023°40'0 0.0
2018-Jul-11 14:28N 70°40' E 023°40'0 0.0
2018-Jul-11 13:58N 70°40' E 023°40'0 0.0
2018-Jul-11 13:28N 70°40' E 023°40'0 0.0
2018-Jul-11 12:58N 70°40' E 023°40'0 0.0
2018-Jul-11 12:28N 70°40' E 023°40'0 0.0
2018-Jul-11 11:58N 70°40' E 023°40'0 0.0
2018-Jul-11 11:28N 70°40' E 023°40'0 0.0
2018-Jul-11 10:58N 70°40' E 023°40'0 0.0
2018-Jul-11 10:28N 70°40' E 023°40'0 0.0
2018-Jul-11 09:58N 70°40' E 023°40'0 0.0
2018-Jul-11 09:28N 70°40' E 023°40'0 0.0
2018-Jul-11 08:58N 70°40' E 023°40'0 0.0
2018-Jul-11 08:28N 70°40' E 023°40'0 0.0
2018-Jul-11 07:58N 70°40' E 023°40'0 0.0
2018-Jul-11 07:28N 70°40' E 023°40'0 0.0
2018-Jul-11 06:58N 70°40' E 023°40'0 0.0
2018-Jul-11 06:28N 70°40' E 023°40'0 0.0
2018-Jul-11 05:58N 70°40' E 023°40'0 0.0
2018-Jul-11 05:28N 70°40' E 023°40'0 0.0
2018-Jul-11 04:58N 70°40' E 023°40'0 0.0
2018-Jul-11 04:28N 70°40' E 023°40'0 0.0
2018-Jul-11 04:00N 70°40' E 023°40'1 1.0
2018-Jul-11 03:30N 70°40' E 023°39'2 3.1
2018-Jul-11 03:00N 70°40' E 023°35'2 3.8
2018-Jul-11 02:29N 70°41' E 023°31'2 4.6
2018-Jul-11 02:00N 70°43' E 023°31'2 4.5
2018-Jul-11 01:30N 70°45' E 023°32'2 4.5
2018-Jul-11 01:00N 70°48' E 023°33'2 4.5
2018-Jul-11 00:29N 70°50' E 023°33'2 4.7
2018-Jul-11 00:00N 70°52' E 023°33'2 4.8
2018-Jul-10 23:30N 70°55' E 023°32'2 4.8
2018-Jul-10 23:00N 70°57' E 023°31'2 4.7
2018-Jul-10 22:30N 70°59' E 023°30'2 4.3
2018-Jul-10 21:59N 71°01' E 023°26'2 4.8
2018-Jul-10 21:29N 71°01' E 023°19'3 5.2
2018-Jul-10 21:00N 71°01' E 023°11'3 5.1
2018-Jul-10 20:30N 71°01' E 023°03'2 4.7
2018-Jul-10 20:00N 71°01' E 022°56'3 5.2
2018-Jul-10 19:30N 71°01' E 022°48'3 6.2
2018-Jul-10 19:00N 71°01' E 022°39'3 6.3
2018-Jul-10 18:30N 71°01' E 022°29'3 6.4
2018-Jul-10 18:00N 71°01' E 022°19'3 5.8
2018-Jul-10 17:30N 71°01' E 022°10'3 5.7
2018-Jul-10 17:00N 71°01' E 022°02'3 5.5
2018-Jul-10 16:30N 71°00' E 021°53'  
Track history (hours):
 
Tides and Currents Weather Stations Pressure Air Temp Water Temp Dewpoint Dewpoint Depression Visibility Wind Speed Wind Dir Waves Ship Positions

Thor Omega

Last reported at 2018-Jul-19 00:20 UTC. Time now 2018-Jul-21 19:13 UTC.
Position N 71°04' E 021°54'.

Length 55 m; draft 3.1 m.

Type: Other ship. MMSI: 231085000.

Date/timePositionNaut miles runAvg speedWind from/ knotsBaromVisibWave heightAir tempDewpointWater temp
2018-Jul-19 00:20N 71°04' E 021°54'3 8.0
2018-Jul-19 00:00N 71°04' E 022°02'4 8.1
2018-Jul-18 23:30N 71°04' E 022°15'4 7.7
2018-Jul-18 23:00N 71°04' E 022°27'4 7.6
2018-Jul-18 22:30N 71°04' E 022°38'4 7.2
2018-Jul-18 21:59N 71°04' E 022°49'3 7.0
2018-Jul-18 21:30N 71°04' E 023°00'3 7.1
2018-Jul-18 21:00N 71°04' E 023°11'4 7.6
2018-Jul-18 20:29N 71°03' E 023°22'4 7.6
2018-Jul-18 20:00N 71°00' E 023°30'4 8.3
2018-Jul-18 19:30N 70°56' E 023°32'4 8.3
2018-Jul-18 19:00N 70°52' E 023°32'4 8.5
2018-Jul-18 18:30N 70°48' E 023°34'4 8.6
2018-Jul-18 17:59N 70°44' E 023°34'3 6.5
2018-Jul-18 17:30N 70°40' E 023°34'2 4.0
2018-Jul-18 17:00N 70°40' E 023°40'0 0.0
2018-Jul-18 16:30N 70°40' E 023°40'0 0.0
2018-Jul-18 15:59N 70°40' E 023°40'0 0.0
2018-Jul-18 15:30N 70°40' E 023°40'0 0.0
2018-Jul-18 15:00N 70°40' E 023°40'0 0.0
2018-Jul-18 14:30N 70°40' E 023°40'0 0.0
2018-Jul-18 13:29N 70°40' E 023°40'0 0.0
2018-Jul-18 13:00N 70°40' E 023°40'0 0.1
2018-Jul-18 12:30N 70°40' E 023°40'2 3.8
2018-Jul-18 12:00N 70°39' E 023°35'0 0.7
2018-Jul-18 11:29N 70°39' E 023°34'2 1.8
2018-Jul-18 10:30N 70°38' E 023°39'0 0.3
2018-Jul-18 10:00N 70°38' E 023°40'0 0.0
2018-Jul-18 09:30N 70°38' E 023°40'0 0.0
2018-Jul-18 08:59N 70°38' E 023°40'0 0.0
2018-Jul-18 08:30N 70°38' E 023°40'0 0.0
2018-Jul-18 08:00N 70°38' E 023°40'0 0.0
2018-Jul-18 07:30N 70°38' E 023°40'0 0.0
2018-Jul-18 07:00N 70°38' E 023°40'0 0.0
2018-Jul-18 06:30N 70°38' E 023°40'0 0.0
2018-Jul-18 06:00N 70°38' E 023°40'0 0.9
2018-Jul-18 05:30N 70°38' E 023°38'2 4.6
2018-Jul-18 05:00N 70°40' E 023°33'3 5.5
2018-Jul-18 04:30N 70°42' E 023°31'3 6.0
2018-Jul-18 04:00N 70°45' E 023°34'3 6.6
2018-Jul-18 03:30N 70°48' E 023°35'3 6.0
2018-Jul-18 03:00N 70°51' E 023°34'3 6.1
2018-Jul-18 02:29N 70°55' E 023°33'3 6.4
2018-Jul-18 02:00N 70°58' E 023°31'2 5.0
2018-Jul-18 01:30N 71°00' E 023°29'3 6.1
2018-Jul-18 00:59N 71°00' E 023°19'3 6.2
2018-Jul-18 00:30N 71°01' E 023°10'3 5.9
2018-Jul-17 23:58N 71°01' E 023°01'3 6.0
2018-Jul-17 23:30N 71°02' E 022°52'3 5.5
2018-Jul-17 23:00N 71°02' E 022°44'3 6.0
2018-Jul-17 22:30N 71°02' E 022°35'3 6.6
2018-Jul-17 22:00N 71°02' E 022°24'3 6.2
2018-Jul-17 21:30N 71°02' E 022°15'3 5.9
2018-Jul-17 21:00N 71°02' E 022°06'3 5.7
2018-Jul-17 20:30N 71°01' E 021°57'3 5.7
2018-Jul-17 20:00N 71°00' E 021°49'  
2018-Jul-12 15:22N 71°00' E 021°49'1 3.7
2018-Jul-12 15:00N 71°01' E 021°52'2 3.4
2018-Jul-12 14:30N 71°02' E 021°55'2 3.3
2018-Jul-12 14:00N 71°04' E 021°59'2 3.2
2018-Jul-12 13:30N 71°05' E 022°03'2 3.1
2018-Jul-12 12:59N 71°06' E 022°07'1 3.0
2018-Jul-12 12:30N 71°07' E 022°10'24 2.6
2018-Jul-12 03:25N 71°16' E 023°19'2 4.5
2018-Jul-12 02:59N 71°14' E 023°20'2 4.7
2018-Jul-12 02:30N 71°12' E 023°22'2 5.0
2018-Jul-12 02:00N 71°10' E 023°24'3 5.6
2018-Jul-12 01:30N 71°07' E 023°26'3 5.8
2018-Jul-12 00:59N 71°04' E 023°28'3 5.5
2018-Jul-12 00:30N 71°01' E 023°30'3 5.8
2018-Jul-12 00:00N 70°59' E 023°31'3 6.2
2018-Jul-11 23:30N 70°55' E 023°31'3 6.2
2018-Jul-11 23:00N 70°52' E 023°32'3 6.2
2018-Jul-11 22:30N 70°49' E 023°33'3 6.3
2018-Jul-11 22:00N 70°46' E 023°32'3 6.8
2018-Jul-11 21:30N 70°43' E 023°31'3 5.3
2018-Jul-11 21:00N 70°40' E 023°31'2 4.2
2018-Jul-11 20:29N 70°40' E 023°37'1 2.5
2018-Jul-11 19:58N 70°40' E 023°40'0 0.0
2018-Jul-11 19:28N 70°40' E 023°40'0 0.0
2018-Jul-11 18:58N 70°40' E 023°40'0 0.0
2018-Jul-11 18:28N 70°40' E 023°40'0 0.0
2018-Jul-11 17:58N 70°40' E 023°40'0 0.0
2018-Jul-11 17:28N 70°40' E 023°40'0 0.0
2018-Jul-11 16:58N 70°40' E 023°40'0 0.0
2018-Jul-11 16:28N 70°40' E 023°40'0 0.0
2018-Jul-11 15:58N 70°40' E 023°40'0 0.0
2018-Jul-11 15:28N 70°40' E 023°40'0 0.0
2018-Jul-11 14:58N 70°40' E 023°40'0 0.0
2018-Jul-11 14:28N 70°40' E 023°40'0 0.0
2018-Jul-11 13:58N 70°40' E 023°40'0 0.0
2018-Jul-11 13:28N 70°40' E 023°40'0 0.0
2018-Jul-11 12:58N 70°40' E 023°40'0 0.0
2018-Jul-11 12:28N 70°40' E 023°40'0 0.0
2018-Jul-11 11:58N 70°40' E 023°40'0 0.0
2018-Jul-11 11:28N 70°40' E 023°40'0 0.0
2018-Jul-11 10:58N 70°40' E 023°40'0 0.0
2018-Jul-11 10:28N 70°40' E 023°40'0 0.0
2018-Jul-11 09:58N 70°40' E 023°40'0 0.0
2018-Jul-11 09:28N 70°40' E 023°40'0 0.0
2018-Jul-11 08:58N 70°40' E 023°40'0 0.0
2018-Jul-11 08:28N 70°40' E 023°40'0 0.0
2018-Jul-11 07:58N 70°40' E 023°40'0 0.0
2018-Jul-11 07:28N 70°40' E 023°40'0 0.0
2018-Jul-11 06:58N 70°40' E 023°40'0 0.0
2018-Jul-11 06:28N 70°40' E 023°40'0 0.0
2018-Jul-11 05:58N 70°40' E 023°40'0 0.0
2018-Jul-11 05:28N 70°40' E 023°40'0 0.0
2018-Jul-11 04:58N 70°40' E 023°40'0 0.0
2018-Jul-11 04:28N 70°40' E 023°40'0 0.0
2018-Jul-11 04:00N 70°40' E 023°40'1 1.0
2018-Jul-11 03:30N 70°40' E 023°39'2 3.1
2018-Jul-11 03:00N 70°40' E 023°35'2 3.8
2018-Jul-11 02:29N 70°41' E 023°31'2 4.6
2018-Jul-11 02:00N 70°43' E 023°31'2 4.5
2018-Jul-11 01:30N 70°45' E 023°32'2 4.5
2018-Jul-11 01:00N 70°48' E 023°33'2 4.5
2018-Jul-11 00:29N 70°50' E 023°33'2 4.7
2018-Jul-11 00:00N 70°52' E 023°33'2 4.8
2018-Jul-10 23:30N 70°55' E 023°32'2 4.8
2018-Jul-10 23:00N 70°57' E 023°31'2 4.7
2018-Jul-10 22:30N 70°59' E 023°30'2 4.3
2018-Jul-10 21:59N 71°01' E 023°26'2 4.8
2018-Jul-10 21:29N 71°01' E 023°19'3 5.2
2018-Jul-10 21:00N 71°01' E 023°11'3 5.1
2018-Jul-10 20:30N 71°01' E 023°03'2 4.7
2018-Jul-10 20:00N 71°01' E 022°56'3 5.2
2018-Jul-10 19:30N 71°01' E 022°48'3 6.2
2018-Jul-10 19:00N 71°01' E 022°39'3 6.3
2018-Jul-10 18:30N 71°01' E 022°29'3 6.4
2018-Jul-10 18:00N 71°01' E 022°19'3 5.8
2018-Jul-10 17:30N 71°01' E 022°10'3 5.7
2018-Jul-10 17:00N 71°01' E 022°02'3 5.5
2018-Jul-10 16:30N 71°00' E 021°53'  

Dump ship's entire track history